Time;durP1;ratioP1;P1;durP2;ratioP2;P2;SDS_P1;SDS_P2;PMS_P1;PMS_P2;Temp;Humidity;BMP_temperature;BMP_pressure;BME280_temperature;BME280_humidity;BME280_pressure;Samples;Min_cycle;Max_cycle;Signal;HPM_P1;HPM_P2
2023/06/24 00:01:19;;;;;;;14.52;10.77;;;;;;;;;;6371268;22;20010;-67
2023/06/24 00:03:48;;;;;;;16.27;11.32;;;;;;;;;;6371270;22;20500;-67
2023/06/24 00:06:18;;;;;;;13.05;11.68;;;;;;;;;;6369833;22;20014;-67
2023/06/24 00:08:46;;;;;;;14.25;11.45;;;;;;;;;;6370075;22;20095;-66
2023/06/24 00:11:14;;;;;;;12.80;10.98;;;;;;;;;;6370796;22;20436;-67
2023/06/24 00:13:41;;;;;;;15.10;11.40;;;;;;;;;;6371080;22;20460;-66
2023/06/24 00:16:09;;;;;;;14.68;11.40;;;;;;;;;;6374003;22;20093;-67
2023/06/24 00:18:41;;;;;;;16.27;12.30;;;;;;;;;;6374769;22;20075;-67
2023/06/24 00:21:08;;;;;;;14.25;10.75;;;;;;;;;;6374300;22;20015;-67
2023/06/24 00:23:36;;;;;;;16.50;11.77;;;;;;;;;;6374177;22;20067;-67
2023/06/24 00:26:04;;;;;;;12.93;11.40;;;;;;;;;;6374036;22;20022;-67
2023/06/24 00:28:31;;;;;;;12.43;11.10;;;;;;;;;;6374323;22;20018;-67
2023/06/24 00:31:01;;;;;;;13.88;10.73;;;;;;;;;;6346174;22;20022;-67
2023/06/24 00:33:28;;;;;;;13.00;10.60;;;;;;;;;;6345445;22;20097;-67
2023/06/24 00:35:56;;;;;;;13.18;10.88;;;;;;;;;;6373661;22;20085;-67
2023/06/24 00:38:24;;;;;;;12.02;10.68;;;;;;;;;;6346665;22;20022;-67
2023/06/24 00:40:51;;;;;;;14.02;11.02;;;;;;;;;;6346451;22;20093;-67
2023/06/24 00:43:19;;;;;;;12.63;10.57;;;;;;;;;;6346319;22;20022;-67
2023/06/24 00:45:48;;;;;;;13.48;10.88;;;;;;;;;;6346415;22;20014;-67
2023/06/24 00:48:16;;;;;;;14.63;10.45;;;;;;;;;;6374065;22;20343;-67
2023/06/24 00:50:45;;;;;;;12.43;10.05;;;;;;;;;;6345800;22;20034;-67
2023/06/24 00:53:13;;;;;;;13.20;11.35;;;;;;;;;;6345847;22;20039;-68
2023/06/24 00:55:40;;;;;;;13.35;10.43;;;;;;;;;;6373654;22;20089;-67
2023/06/24 00:58:08;;;;;;;11.80;10.43;;;;;;;;;;6346322;22;20018;-67
2023/06/24 01:00:36;;;;;;;12.82;10.93;;;;;;;;;;6374091;22;20440;-67
2023/06/24 01:03:04;;;;;;;13.50;10.68;;;;;;;;;;6346485;22;20469;-67
2023/06/24 01:05:35;;;;;;;14.20;11.35;;;;;;;;;;6346714;22;20033;-67
2023/06/24 01:08:03;;;;;;;12.50;10.90;;;;;;;;;;6346107;22;20090;-68
2023/06/24 01:10:30;;;;;;;13.68;11.07;;;;;;;;;;6346390;22;20021;-67
2023/06/24 01:12:58;;;;;;;12.10;10.45;;;;;;;;;;6346479;22;20094;-68
2023/06/24 01:15:28;;;;;;;12.32;11.02;;;;;;;;;;6345587;22;20026;-67
2023/06/24 01:18:11;;;;;;;13.20;10.80;;;;;;;;;;6345486;22;20025;-67
2023/06/24 01:20:41;;;;;;;15.02;11.63;;;;;;;;;;6345795;22;20089;-67
2023/06/24 01:23:18;;;;;;;15.30;13.18;;;;;;;;;;6345766;22;20018;-67
2023/06/24 01:26:05;;;;;;;12.50;11.20;;;;;;;;;;6371752;22;20014;-68
2023/06/24 01:28:32;;;;;;;17.38;11.77;;;;;;;;;;6344751;22;20014;-68
2023/06/24 01:31:04;;;;;;;15.73;11.90;;;;;;;;;;6343618;22;20022;-67
2023/06/24 01:33:37;;;;;;;13.63;11.63;;;;;;;;;;6344710;22;20021;-67
2023/06/24 01:36:06;;;;;;;13.45;11.23;;;;;;;;;;6344838;22;20014;-67
2023/06/24 01:38:41;;;;;;;13.88;11.43;;;;;;;;;;6344617;22;20018;-67
2023/06/24 01:41:09;;;;;;;13.10;11.77;;;;;;;;;;6344304;22;20444;-68
2023/06/24 01:43:38;;;;;;;12.95;11.27;;;;;;;;;;6372122;22;20028;-67
2023/06/24 01:46:06;;;;;;;15.82;11.52;;;;;;;;;;6344033;22;20377;-68
2023/06/24 01:48:35;;;;;;;13.57;12.10;;;;;;;;;;6344199;22;20466;-68
2023/06/24 01:51:06;;;;;;;13.57;11.75;;;;;;;;;;6344561;22;20381;-68
2023/06/24 01:53:35;;;;;;;13.50;12.10;;;;;;;;;;6344195;22;20051;-68
2023/06/24 01:56:04;;;;;;;13.52;12.13;;;;;;;;;;6344334;22;20029;-68
2023/06/24 01:58:34;;;;;;;12.75;11.45;;;;;;;;;;6326571;22;20375;-68
2023/06/24 02:01:04;;;;;;;13.15;11.75;;;;;;;;;;6338465;22;20027;-68
2023/06/24 02:03:35;;;;;;;12.75;11.35;;;;;;;;;;6371798;22;20014;-68
2023/06/24 02:06:05;;;;;;;14.18;12.00;;;;;;;;;;6344498;22;20507;-68
2023/06/24 02:08:34;;;;;;;15.57;12.05;;;;;;;;;;6345284;22;20046;-68
2023/06/24 02:11:02;;;;;;;13.80;12.13;;;;;;;;;;6373129;22;20038;-68
2023/06/24 02:13:38;;;;;;;15.80;11.98;;;;;;;;;;6327942;22;20019;-68
2023/06/24 02:16:10;;;;;;;15.45;12.10;;;;;;;;;;6340584;22;20038;-68
2023/06/24 02:18:43;;;;;;;15.63;11.73;;;;;;;;;;6372771;22;20082;-68
2023/06/24 02:21:11;;;;;;;12.48;11.20;;;;;;;;;;6344357;22;20015;-68
2023/06/24 02:23:38;;;;;;;13.98;11.63;;;;;;;;;;6343419;22;20019;-68
2023/06/24 02:26:07;;;;;;;13.02;11.43;;;;;;;;;;6371517;22;20042;-69
2023/06/24 02:28:35;;;;;;;12.55;10.95;;;;;;;;;;6343274;22;20023;-70
2023/06/24 02:31:03;;;;;;;13.32;11.38;;;;;;;;;;6342805;22;20022;-69
2023/06/24 02:33:33;;;;;;;13.40;11.40;;;;;;;;;;6343868;22;20041;-69
2023/06/24 02:36:00;;;;;;;12.40;11.00;;;;;;;;;;6343460;22;20057;-68
2023/06/24 02:38:28;;;;;;;13.80;11.63;;;;;;;;;;6344496;22;20020;-68
2023/06/24 02:40:56;;;;;;;12.10;10.77;;;;;;;;;;6344125;22;20041;-69
2023/06/24 02:43:24;;;;;;;16.27;12.50;;;;;;;;;;6344104;22;20030;-69
2023/06/24 02:45:52;;;;;;;13.88;11.50;;;;;;;;;;6371493;22;20010;-69
2023/06/24 02:48:21;;;;;;;13.63;11.73;;;;;;;;;;6343855;22;20050;-69
2023/06/24 02:50:49;;;;;;;12.27;10.80;;;;;;;;;;6343194;22;20031;-69
2023/06/24 02:53:16;;;;;;;15.07;11.73;;;;;;;;;;6342711;22;20018;-69
2023/06/24 02:55:46;;;;;;;17.23;11.45;;;;;;;;;;6342937;22;20436;-69
2023/06/24 02:58:14;;;;;;;15.82;10.95;;;;;;;;;;6371042;22;20165;-68
2023/06/24 03:00:50;;;;;;;15.73;11.57;;;;;;;;;;6343318;22;20018;-68
2023/06/24 03:03:39;;;;;;;14.95;12.23;;;;;;;;;;6354085;22;20343;-68
2023/06/24 03:06:12;;;;;;;14.30;12.10;;;;;;;;;;6344602;22;20010;-68
2023/06/24 03:08:41;;;;;;;15.60;12.25;;;;;;;;;;6343012;22;20433;-68
2023/06/24 03:11:09;;;;;;;15.18;12.15;;;;;;;;;;6342835;22;20025;-68
2023/06/24 03:13:36;;;;;;;15.05;12.20;;;;;;;;;;6343756;22;20014;-69
2023/06/24 03:16:30;;;;;;;16.75;11.75;;;;;;;;;;6367220;22;20347;-69
2023/06/24 03:19:07;;;;;;;14.57;11.65;;;;;;;;;;6343038;22;20060;-69
2023/06/24 03:21:35;;;;;;;17.77;12.68;;;;;;;;;;6370892;22;20444;-69
2023/06/24 03:24:07;;;;;;;14.50;12.55;;;;;;;;;;6342899;22;20041;-69
2023/06/24 03:26:38;;;;;;;15.20;13.60;;;;;;;;;;6343115;22;20042;-69
2023/06/24 03:29:08;;;;;;;15.43;12.55;;;;;;;;;;6343489;22;20010;-69
2023/06/24 03:31:43;;;;;;;16.17;12.80;;;;;;;;;;6370856;22;20014;-69
2023/06/24 03:34:16;;;;;;;15.65;13.30;;;;;;;;;;6342843;22;20010;-69
2023/06/24 03:36:44;;;;;;;16.17;13.50;;;;;;;;;;6370629;22;20014;-70
2023/06/24 03:39:14;;;;;;;14.25;12.32;;;;;;;;;;6342992;22;20019;-68
2023/06/24 03:41:42;;;;;;;17.95;12.82;;;;;;;;;;6342655;22;20026;-70
2023/06/24 03:44:12;;;;;;;15.45;12.93;;;;;;;;;;6341793;22;20049;-69
2023/06/24 03:46:39;;;;;;;15.88;12.68;;;;;;;;;;6342908;22;20390;-69
2023/06/24 03:49:09;;;;;;;14.20;12.68;;;;;;;;;;6341853;22;20026;-68
2023/06/24 03:51:37;;;;;;;16.98;12.50;;;;;;;;;;6342977;22;20440;-68
2023/06/24 03:54:04;;;;;;;15.27;12.55;;;;;;;;;;6342234;22;20014;-68
2023/06/24 03:56:32;;;;;;;14.60;13.05;;;;;;;;;;6369582;22;20059;-68
2023/06/24 03:58:59;;;;;;;14.70;12.82;;;;;;;;;;6342976;22;20019;-68
2023/06/24 04:01:31;;;;;;;15.48;12.07;;;;;;;;;;6342521;22;20508;-68
2023/06/24 04:03:59;;;;;;;15.25;12.23;;;;;;;;;;6369999;22;20021;-68
2023/06/24 04:06:27;;;;;;;13.52;12.13;;;;;;;;;;6342311;22;20014;-69
2023/06/24 04:08:54;;;;;;;14.02;11.45;;;;;;;;;;6370980;22;20010;-69
2023/06/24 04:11:22;;;;;;;15.63;11.52;;;;;;;;;;6369973;22;20010;-69
2023/06/24 04:13:51;;;;;;;15.77;12.27;;;;;;;;;;6370422;22;20019;-69
2023/06/24 04:16:18;;;;;;;12.90;11.60;;;;;;;;;;6343133;22;20018;-69
2023/06/24 04:18:46;;;;;;;13.70;11.20;;;;;;;;;;6343657;22;20403;-68
2023/06/24 04:21:14;;;;;;;12.85;10.98;;;;;;;;;;6343201;22;20006;-68
2023/06/24 04:23:41;;;;;;;15.50;11.65;;;;;;;;;;6343164;22;20021;-69
2023/06/24 04:26:09;;;;;;;12.75;11.43;;;;;;;;;;6341963;22;20336;-68
2023/06/24 04:28:37;;;;;;;14.43;11.00;;;;;;;;;;6342029;22;20383;-68
2023/06/24 04:31:05;;;;;;;13.88;11.55;;;;;;;;;;6370675;22;20097;-69
2023/06/24 04:33:33;;;;;;;14.55;11.23;;;;;;;;;;6342669;22;20018;-68
2023/06/24 04:36:01;;;;;;;11.27;10.18;;;;;;;;;;6342223;22;20105;-69
2023/06/24 04:38:30;;;;;;;12.15;10.40;;;;;;;;;;6342502;22;20014;-69
2023/06/24 04:40:59;;;;;;;12.85;10.35;;;;;;;;;;6342510;22;20025;-69
2023/06/24 04:43:28;;;;;;;12.77;10.73;;;;;;;;;;6370429;22;20014;-69
2023/06/24 04:45:55;;;;;;;13.63;10.63;;;;;;;;;;6370141;22;20331;-69
2023/06/24 04:48:25;;;;;;;14.48;11.57;;;;;;;;;;6370557;22;20011;-69
2023/06/24 04:50:54;;;;;;;12.48;10.95;;;;;;;;;;6370017;22;20018;-69
2023/06/24 04:53:22;;;;;;;16.80;11.80;;;;;;;;;;6369774;22;20016;-70
2023/06/24 04:55:49;;;;;;;15.35;11.63;;;;;;;;;;6370226;22;20536;-69
2023/06/24 04:58:17;;;;;;;15.43;11.35;;;;;;;;;;6370307;22;20019;-69
2023/06/24 05:00:44;;;;;;;11.27;9.98;;;;;;;;;;6371784;22;20041;-70
2023/06/24 05:03:12;;;;;;;14.65;10.63;;;;;;;;;;6372164;22;20014;-69
2023/06/24 05:05:40;;;;;;;13.70;10.90;;;;;;;;;;6372006;22;20064;-70
2023/06/24 05:08:07;;;;;;;13.77;10.18;;;;;;;;;;6372517;22;20383;-69
2023/06/24 05:10:35;;;;;;;18.55;10.02;;;;;;;;;;6371886;22;20042;-70
2023/06/24 05:13:02;;;;;;;12.77;10.20;;;;;;;;;;6371427;22;20017;-69
2023/06/24 05:15:30;;;;;;;10.60;8.48;;;;;;;;;;6358752;22;20025;-70
2023/06/24 05:17:57;;;;;;;9.75;8.52;;;;;;;;;;6371872;22;20017;-70
2023/06/24 05:20:25;;;;;;;11.52;8.77;;;;;;;;;;6343832;22;20028;-70
2023/06/24 05:22:52;;;;;;;13.00;9.40;;;;;;;;;;6371783;22;20014;-70
2023/06/24 05:25:20;;;;;;;13.23;8.30;;;;;;;;;;6372183;22;20064;-70
2023/06/24 05:27:47;;;;;;;11.60;8.88;;;;;;;;;;6371605;22;20049;-70
2023/06/24 05:30:15;;;;;;;9.93;8.38;;;;;;;;;;6371879;22;20014;-70
2023/06/24 05:32:43;;;;;;;9.38;8.32;;;;;;;;;;6372078;22;20020;-70
2023/06/24 05:35:10;;;;;;;9.50;8.15;;;;;;;;;;6370777;22;20010;-70
2023/06/24 05:37:38;;;;;;;9.40;8.25;;;;;;;;;;6371861;22;20034;-70
2023/06/24 05:40:06;;;;;;;9.07;8.13;;;;;;;;;;6372290;22;20067;-70
2023/06/24 05:42:34;;;;;;;10.50;8.30;;;;;;;;;;6372011;22;20017;-70
2023/06/24 05:45:01;;;;;;;11.27;8.43;;;;;;;;;;6371035;22;20019;-70
2023/06/24 05:47:29;;;;;;;13.07;8.80;;;;;;;;;;6372292;22;20375;-70
2023/06/24 05:49:57;;;;;;;8.77;7.95;;;;;;;;;;6372375;22;20073;-71
2023/06/24 05:52:24;;;;;;;14.65;7.90;;;;;;;;;;6372139;22;20336;-71
2023/06/24 05:54:51;;;;;;;8.73;7.80;;;;;;;;;;6371514;22;20038;-71
2023/06/24 05:57:19;;;;;;;10.70;7.97;;;;;;;;;;6371426;22;20038;-70
2023/06/24 05:59:46;;;;;;;9.35;7.82;;;;;;;;;;6371981;22;20428;-71
2023/06/24 06:02:14;;;;;;;10.98;8.07;;;;;;;;;;6371351;22;20083;-72
2023/06/24 06:04:41;;;;;;;12.13;8.73;;;;;;;;;;6371115;22;20563;-72
2023/06/24 06:07:09;;;;;;;9.55;8.57;;;;;;;;;;6372197;22;20444;-70
2023/06/24 06:09:37;;;;;;;8.90;8.00;;;;;;;;;;6371318;22;20014;-71
2023/06/24 06:12:05;;;;;;;12.77;8.65;;;;;;;;;;6371121;22;20014;-71
2023/06/24 06:14:32;;;;;;;12.73;8.90;;;;;;;;;;6371088;22;20076;-71
2023/06/24 06:17:00;;;;;;;11.82;8.00;;;;;;;;;;6371218;22;20022;-71
2023/06/24 06:19:27;;;;;;;12.60;7.97;;;;;;;;;;6343574;22;20019;-70
2023/06/24 06:21:55;;;;;;;11.15;7.82;;;;;;;;;;6343185;22;20094;-70
2023/06/24 06:24:22;;;;;;;12.57;8.40;;;;;;;;;;6343986;22;20024;-70
2023/06/24 06:26:50;;;;;;;10.13;8.20;;;;;;;;;;6371975;22;20014;-70
2023/06/24 06:29:18;;;;;;;12.80;8.43;;;;;;;;;;6371832;22;20332;-70
2023/06/24 06:31:46;;;;;;;13.02;8.32;;;;;;;;;;6371672;22;20052;-70
2023/06/24 06:34:13;;;;;;;11.25;9.07;;;;;;;;;;6370982;22;20022;-70
2023/06/24 06:36:41;;;;;;;9.82;8.55;;;;;;;;;;6369105;22;20021;-71
2023/06/24 06:39:08;;;;;;;13.02;8.07;;;;;;;;;;6342176;22;20072;-71
2023/06/24 06:41:36;;;;;;;12.45;9.00;;;;;;;;;;6341331;22;20018;-71
2023/06/24 06:44:03;;;;;;;13.18;8.05;;;;;;;;;;6369506;22;20333;-69
2023/06/24 06:46:31;;;;;;;12.30;8.13;;;;;;;;;;6369839;22;20106;-69
2023/06/24 06:48:59;;;;;;;9.57;7.80;;;;;;;;;;6370022;22;20451;-69
2023/06/24 06:51:27;;;;;;;11.40;8.20;;;;;;;;;;6343544;22;20044;-69
2023/06/24 06:53:54;;;;;;;8.88;7.90;;;;;;;;;;6371469;22;20081;-69
2023/06/24 06:56:25;;;;;;;13.05;8.15;;;;;;;;;;6370813;22;20022;-69
2023/06/24 06:58:53;;;;;;;17.20;12.23;;;;;;;;;;6371099;22;20010;-70
2023/06/24 07:01:21;;;;;;;9.80;8.25;;;;;;;;;;6371999;22;20021;-70
2023/06/24 07:03:50;;;;;;;12.70;8.23;;;;;;;;;;6370803;22;20470;-70
2023/06/24 07:06:20;;;;;;;12.80;8.55;;;;;;;;;;6371277;22;20045;-71
2023/06/24 07:08:48;;;;;;;13.52;7.53;;;;;;;;;;6371298;22;20090;-71
2023/06/24 07:11:16;;;;;;;11.52;7.53;;;;;;;;;;6371501;22;20022;-69
2023/06/24 07:13:45;;;;;;;14.25;8.45;;;;;;;;;;6371626;22;20059;-70
2023/06/24 07:16:13;;;;;;;11.93;8.05;;;;;;;;;;6371584;22;20117;-67
2023/06/24 07:18:40;;;;;;;9.88;7.20;;;;;;;;;;6370791;22;20010;-68
2023/06/24 07:21:08;;;;;;;9.07;7.65;;;;;;;;;;6370330;22;20098;-68
2023/06/24 07:23:35;;;;;;;13.65;8.55;;;;;;;;;;6370479;22;20336;-67
2023/06/24 07:26:03;;;;;;;11.18;7.90;;;;;;;;;;6371420;22;20029;-68
2023/06/24 07:28:30;;;;;;;10.57;7.15;;;;;;;;;;6358001;22;20090;-69
2023/06/24 07:30:58;;;;;;;11.38;7.20;;;;;;;;;;6343205;22;20381;-68
2023/06/24 07:33:26;;;;;;;9.50;7.40;;;;;;;;;;6370775;22;20314;-67
2023/06/24 07:35:56;;;;;;;10.43;8.65;;;;;;;;;;6371212;22;20501;-70
2023/06/24 07:38:23;;;;;;;8.30;7.30;;;;;;;;;;6371031;22;20011;-69
2023/06/24 07:40:51;;;;;;;10.90;7.53;;;;;;;;;;6370764;22;20456;-69
2023/06/24 07:43:18;;;;;;;11.35;7.60;;;;;;;;;;6370322;22;20337;-69
2023/06/24 07:45:46;;;;;;;10.73;7.20;;;;;;;;;;6370684;22;20093;-66
2023/06/24 07:48:13;;;;;;;10.20;7.20;;;;;;;;;;6370896;22;20029;-68
2023/06/24 07:50:41;;;;;;;9.55;7.28;;;;;;;;;;6370384;22;20101;-69
2023/06/24 07:53:08;;;;;;;9.57;6.80;;;;;;;;;;6370491;22;20018;-69
2023/06/24 07:55:36;;;;;;;9.05;7.25;;;;;;;;;;6369961;22;20015;-68
2023/06/24 07:58:04;;;;;;;13.38;6.72;;;;;;;;;;6369591;22;20071;-70
2023/06/24 08:00:32;;;;;;;8.95;7.05;;;;;;;;;;6370487;22;20428;-69
2023/06/24 08:02:59;;;;;;;7.70;7.00;;;;;;;;;;6369311;22;20021;-66
2023/06/24 08:05:30;;;;;;;10.45;7.07;;;;;;;;;;6368203;22;20006;-70
2023/06/24 08:07:57;;;;;;;9.02;6.55;;;;;;;;;;6370658;22;20085;-69
2023/06/24 08:10:28;;;;;;;9.60;6.63;;;;;;;;;;6369038;22;20015;-69
2023/06/24 08:12:55;;;;;;;7.63;6.70;;;;;;;;;;6370237;22;20384;-69
2023/06/24 08:15:23;;;;;;;6.38;5.78;;;;;;;;;;6369212;22;20028;-69
2023/06/24 08:17:54;;;;;;;9.40;6.82;;;;;;;;;;6371651;22;20021;-69
2023/06/24 08:20:22;;;;;;;7.35;6.25;;;;;;;;;;6369500;22;20037;-68
2023/06/24 08:22:50;;;;;;;9.20;6.38;;;;;;;;;;6370200;22;20722;-68
2023/06/24 08:25:18;;;;;;;7.68;6.03;;;;;;;;;;6370008;22;20021;-67
2023/06/24 08:27:46;;;;;;;12.07;9.40;;;;;;;;;;6368966;22;20093;-68
2023/06/24 08:30:15;;;;;;;9.10;6.68;;;;;;;;;;6369889;22;20017;-68
2023/06/24 08:32:42;;;;;;;7.60;5.97;;;;;;;;;;6370094;22;20019;-67
2023/06/24 08:35:10;;;;;;;6.93;6.20;;;;;;;;;;6370271;22;20129;-68
2023/06/24 08:37:38;;;;;;;9.55;7.18;;;;;;;;;;6369028;22;20152;-68
2023/06/24 08:40:06;;;;;;;9.38;7.22;;;;;;;;;;6369510;22;20421;-68
2023/06/24 08:42:33;;;;;;;11.35;10.18;;;;;;;;;;6368882;22;20491;-68
2023/06/24 08:45:01;;;;;;;16.02;14.38;;;;;;;;;;6368414;22;20010;-69
2023/06/24 08:47:30;;;;;;;7.18;6.47;;;;;;;;;;6343651;22;20014;-69
2023/06/24 08:50:18;;;;;;;162.55;149.23;;;;;;;;;;6371281;22;20014;-67
2023/06/24 08:52:49;;;;;;;496.10;447.00;;;;;;;;;;6369389;22;20097;-68
2023/06/24 08:55:17;;;;;;;166.40;152.95;;;;;;;;;;6370683;22;20014;-67
2023/06/24 08:57:47;;;;;;;92.97;84.20;;;;;;;;;;6368870;22;20018;-68
2023/06/24 09:00:15;;;;;;;37.42;33.90;;;;;;;;;;6370731;22;20086;-68
2023/06/24 09:02:43;;;;;;;1296.30;938.03;;;;;;;;;;6370862;22;20023;-68
2023/06/24 09:05:20;;;;;;;163.82;147.18;;;;;;;;;;6343839;22;20034;-69
2023/06/24 09:07:48;;;;;;;378.27;341.08;;;;;;;;;;6371385;22;20071;-69
2023/06/24 09:10:35;;;;;;;283.67;256.60;;;;;;;;;;6342552;22;20056;-68
2023/06/24 09:13:07;;;;;;;229.48;207.90;;;;;;;;;;6370868;22;20015;-70
2023/06/24 09:15:35;;;;;;;77.03;69.53;;;;;;;;;;6369989;22;20022;-68
2023/06/24 09:18:04;;;;;;;18.70;15.57;;;;;;;;;;6371822;22;20093;-69
2023/06/24 09:20:32;;;;;;;12.02;8.80;;;;;;;;;;6371559;22;20381;-70
2023/06/24 09:23:01;;;;;;;13.00;9.60;;;;;;;;;;6371322;22;20087;-71
2023/06/24 09:25:28;;;;;;;17.15;10.93;;;;;;;;;;6371301;22;20024;-71
2023/06/24 09:28:21;;;;;;;8.90;8.00;;;;;;;;;;6344425;22;20018;-70
2023/06/24 09:31:04;;;;;;;54.30;45.67;;;;;;;;;;6371924;22;20014;-71
2023/06/24 09:33:46;;;;;;;8.50;6.68;;;;;;;;;;6372289;22;20010;-72
2023/06/24 09:36:14;;;;;;;9.13;7.22;;;;;;;;;;6371593;22;20085;-70
2023/06/24 09:38:45;;;;;;;8.35;7.18;;;;;;;;;;6371585;22;20010;-71
2023/06/24 09:41:14;;;;;;;9.65;8.07;;;;;;;;;;6371139;22;20437;-71
2023/06/24 09:43:43;;;;;;;39.67;14.73;;;;;;;;;;6371510;22;20018;-70
2023/06/24 09:46:12;;;;;;;17.27;11.30;;;;;;;;;;6314562;22;20408;-70
2023/06/24 09:48:39;;;;;;;10.48;6.90;;;;;;;;;;6370498;22;20044;-69
2023/06/24 09:51:07;;;;;;;7.40;6.60;;;;;;;;;;6371969;22;20049;-70
2023/06/24 09:53:35;;;;;;;9.45;6.60;;;;;;;;;;6371525;22;20033;-69
2023/06/24 09:56:07;;;;;;;10.52;8.23;;;;;;;;;;6370873;22;20014;-70
2023/06/24 09:58:39;;;;;;;7.60;6.43;;;;;;;;;;6371612;22;20060;-70
2023/06/24 10:01:06;;;;;;;12.30;9.07;;;;;;;;;;6371503;22;20021;-69
2023/06/24 10:03:35;;;;;;;17.48;6.70;;;;;;;;;;6370615;22;20468;-71
2023/06/24 10:06:04;;;;;;;10.13;7.15;;;;;;;;;;6370674;22;20055;-71
2023/06/24 10:08:31;;;;;;;10.18;8.38;;;;;;;;;;6370551;22;20025;-70
2023/06/24 10:11:02;;;;;;;9.57;7.88;;;;;;;;;;6370706;22;20439;-71
2023/06/24 10:13:30;;;;;;;8.10;7.22;;;;;;;;;;6342712;22;20014;-70
2023/06/24 10:15:58;;;;;;;10.27;9.27;;;;;;;;;;6370688;22;20018;-71
2023/06/24 10:18:31;;;;;;;7.47;6.75;;;;;;;;;;6343114;22;20093;-70
2023/06/24 10:20:59;;;;;;;;;;;;;;;;;;6371473;22;20011;-71
2023/06/24 10:23:31;;;;;;;7.25;6.30;;;;;;;;;;6371650;22;19925;-71
2023/06/24 10:25:58;;;;;;;10.30;6.47;;;;;;;;;;6343504;22;20049;-71
2023/06/24 10:28:28;;;;;;;8.80;5.10;;;;;;;;;;6343887;22;20011;-72
2023/06/24 10:30:56;;;;;;;6.70;5.95;;;;;;;;;;6371513;22;20056;-72
2023/06/24 10:33:26;;;;;;;6.57;5.43;;;;;;;;;;6343591;22;20459;-72
2023/06/24 10:35:54;;;;;;;7.22;6.53;;;;;;;;;;6371250;22;20047;-71
2023/06/24 10:38:21;;;;;;;9.95;6.40;;;;;;;;;;6370233;22;20010;-71
2023/06/24 10:40:52;;;;;;;8.23;5.80;;;;;;;;;;6369907;22;20014;-71
2023/06/24 10:43:29;;;;;;;6.20;5.60;;;;;;;;;;6343075;22;20022;-73
2023/06/24 10:45:58;;;;;;;6.18;5.55;;;;;;;;;;6369381;22;20453;-68
2023/06/24 10:48:27;;;;;;;8.15;7.35;;;;;;;;;;6371082;22;20374;-76
2023/06/24 10:50:54;;;;;;;11.25;10.05;;;;;;;;;;6370340;22;20444;-77
2023/06/24 10:53:22;;;;;;;7.60;5.95;;;;;;;;;;6370437;22;20015;-76
2023/06/24 10:55:50;;;;;;;7.53;6.10;;;;;;;;;;6343123;22;20105;-77
2023/06/24 10:58:18;;;;;;;9.07;5.90;;;;;;;;;;6369863;22;20010;-77
2023/06/24 11:00:46;;;;;;;8.38;6.03;;;;;;;;;;6370179;22;20023;-79
2023/06/24 11:03:15;;;;;;;8.43;5.80;;;;;;;;;;6341480;22;20513;-76
2023/06/24 11:05:45;;;;;;;8.30;6.97;;;;;;;;;;6371041;22;20447;-80
2023/06/24 11:08:13;;;;;;;7.93;5.95;;;;;;;;;;6371702;22;20060;-76
2023/06/24 11:10:46;;;;;;;6.43;5.82;;;;;;;;;;6371123;22;20101;-80
2023/06/24 11:13:13;;;;;;;7.30;6.03;;;;;;;;;;6371730;22;20038;-80
2023/06/24 11:15:42;;;;;;;7.78;6.55;;;;;;;;;;6371998;22;20019;-79
2023/06/24 11:18:10;;;;;;;11.18;6.43;;;;;;;;;;6344319;22;20014;-79
2023/06/24 11:20:38;;;;;;;7.80;6.90;;;;;;;;;;6371943;22;19995;-79
2023/06/24 11:23:12;;;;;;;8.60;7.68;;;;;;;;;;6372060;22;20040;-80
2023/06/24 11:25:44;;;;;;;11.45;6.28;;;;;;;;;;6371421;22;20055;-80
2023/06/24 11:28:15;;;;;;;6.57;5.70;;;;;;;;;;6343552;22;20459;-78
2023/06/24 11:30:42;;;;;;;6.38;5.57;;;;;;;;;;6371037;22;20382;-74
2023/06/24 11:33:12;;;;;;;7.97;6.38;;;;;;;;;;6342482;22;20006;-77
2023/06/24 11:35:39;;;;;;;9.57;5.78;;;;;;;;;;6370153;22;20482;-79
2023/06/24 11:38:07;;;;;;;7.22;5.90;;;;;;;;;;6370957;22;20012;-78
2023/06/24 11:40:35;;;;;;;6.50;5.55;;;;;;;;;;6370897;22;20081;-80
2023/06/24 11:43:03;;;;;;;8.32;5.65;;;;;;;;;;6371378;22;20106;-79
2023/06/24 11:45:32;;;;;;;6.88;6.05;;;;;;;;;;6370929;22;20083;-79
2023/06/24 11:48:04;;;;;;;7.47;5.75;;;;;;;;;;6370648;22;20010;-78
2023/06/24 11:50:46;;;;;;;8.98;6.80;;;;;;;;;;6370529;22;20075;-82
2023/06/24 11:53:14;;;;;;;7.28;5.57;;;;;;;;;;6369252;22;20009;-76
2023/06/24 11:55:41;;;;;;;6.32;5.35;;;;;;;;;;6368500;22;20124;-76
2023/06/24 11:58:09;;;;;;;7.10;5.82;;;;;;;;;;6369615;22;20018;-81
2023/06/24 12:00:46;;;;;;;9.35;7.47;;;;;;;;;;6368705;22;20011;-80
2023/06/24 12:03:15;;;;;;;9.52;6.45;;;;;;;;;;6369349;22;20025;-75
2023/06/24 12:05:47;;;;;;;7.70;6.57;;;;;;;;;;6370037;22;20010;-77
2023/06/24 12:08:15;;;;;;;15.90;11.98;;;;;;;;;;6370824;22;20083;-77
2023/06/24 12:10:44;;;;;;;7.72;6.03;;;;;;;;;;6369923;22;20382;-76
2023/06/24 12:13:12;;;;;;;6.57;5.53;;;;;;;;;;6369463;22;20019;-74
2023/06/24 12:15:39;;;;;;;8.32;5.90;;;;;;;;;;6341767;22;20063;-77
2023/06/24 12:18:07;;;;;;;8.55;6.10;;;;;;;;;;6369626;22;20016;-79
2023/06/24 12:20:36;;;;;;;6.53;5.80;;;;;;;;;;6369440;22;20460;-75
2023/06/24 12:23:06;;;;;;;7.80;6.53;;;;;;;;;;6369751;22;20042;-77
2023/06/24 12:25:34;;;;;;;8.73;5.53;;;;;;;;;;6371012;22;20007;-77
2023/06/24 12:28:02;;;;;;;6.65;5.30;;;;;;;;;;6370114;22;20386;-78
2023/06/24 12:30:29;;;;;;;7.45;6.00;;;;;;;;;;6369924;22;20074;-74
2023/06/24 12:32:57;;;;;;;6.75;5.72;;;;;;;;;;6370262;22;20521;-75
2023/06/24 12:35:25;;;;;;;8.55;5.45;;;;;;;;;;6370395;22;20079;-76
2023/06/24 12:37:53;;;;;;;7.75;6.50;;;;;;;;;;6370433;22;20014;-78
2023/06/24 12:40:21;;;;;;;8.32;6.20;;;;;;;;;;6370800;22;20082;-75
2023/06/24 12:43:09;;;;;;;6.10;5.50;;;;;;;;;;6369174;22;20026;-76
2023/06/24 12:45:37;;;;;;;7.03;6.10;;;;;;;;;;6342925;22;20022;-77
2023/06/24 12:48:04;;;;;;;9.32;5.90;;;;;;;;;;6370659;22;20024;-78
2023/06/24 12:50:32;;;;;;;7.15;5.43;;;;;;;;;;6343057;22;20379;-78
2023/06/24 12:53:01;;;;;;;6.68;5.22;;;;;;;;;;6370651;22;20015;-78
2023/06/24 12:55:28;;;;;;;6.60;5.43;;;;;;;;;;6369444;22;20344;-80
2023/06/24 12:58:28;;;;;;;6.07;5.47;;;;;;;;;;6343570;22;20018;-82
2023/06/24 13:01:00;;;;;;;5.90;5.30;;;;;;;;;;6360973;22;20010;-83
2023/06/24 13:03:28;;;;;;;7.05;5.57;;;;;;;;;;6370412;22;20043;-78
2023/06/24 13:05:57;;;;;;;6.20;5.38;;;;;;;;;;6369595;22;20014;-79
2023/06/24 13:08:27;;;;;;;8.15;5.38;;;;;;;;;;6341916;22;20067;-79
2023/06/24 13:10:54;;;;;;;5.93;5.32;;;;;;;;;;6341548;22;20036;-79
2023/06/24 13:13:22;;;;;;;7.30;5.43;;;;;;;;;;6370849;22;20472;-80
2023/06/24 13:15:50;;;;;;;8.50;5.50;;;;;;;;;;6342916;22;20021;-80
2023/06/24 13:18:19;;;;;;;7.75;5.50;;;;;;;;;;6371032;22;20475;-79
2023/06/24 13:20:47;;;;;;;6.90;5.50;;;;;;;;;;6372413;22;20023;-78
2023/06/24 13:23:15;;;;;;;8.18;6.20;;;;;;;;;;6372601;22;20071;-78
2023/06/24 13:25:42;;;;;;;5.53;4.95;;;;;;;;;;6371429;22;20021;-80
2023/06/24 13:28:10;;;;;;;7.63;6.85;;;;;;;;;;6342491;22;20023;-78
2023/06/24 13:30:37;;;;;;;7.90;5.85;;;;;;;;;;6343867;22;20090;-79
2023/06/24 13:33:05;;;;;;;8.68;6.32;;;;;;;;;;6344179;22;20040;-79
2023/06/24 13:35:33;;;;;;;9.65;5.70;;;;;;;;;;6371703;22;20071;-82
2023/06/24 13:38:01;;;;;;;10.95;6.13;;;;;;;;;;6319674;22;20349;-76
2023/06/24 13:40:28;;;;;;;7.53;5.85;;;;;;;;;;6372272;22;20026;-78
2023/06/24 13:42:56;;;;;;;6.38;5.70;;;;;;;;;;6372450;22;20032;-78
2023/06/24 13:45:23;;;;;;;10.13;6.00;;;;;;;;;;6372386;22;20018;-78
2023/06/24 13:47:51;;;;;;;11.52;6.57;;;;;;;;;;6344677;22;20476;-79
2023/06/24 13:50:19;;;;;;;11.93;6.25;;;;;;;;;;6344711;22;20021;-77
2023/06/24 13:52:46;;;;;;;8.77;5.43;;;;;;;;;;6373321;22;20081;-79
2023/06/24 13:55:14;;;;;;;9.55;6.40;;;;;;;;;;6345640;22;20018;-78
2023/06/24 13:57:41;;;;;;;8.27;5.95;;;;;;;;;;6373043;22;20383;-78
2023/06/24 14:00:09;;;;;;;7.57;5.72;;;;;;;;;;6345552;22;20046;-75
2023/06/24 14:02:38;;;;;;;9.15;5.55;;;;;;;;;;6372875;22;20388;-77
2023/06/24 14:05:06;;;;;;;9.88;5.65;;;;;;;;;;6372769;22;20021;-78
2023/06/24 14:07:35;;;;;;;6.63;5.93;;;;;;;;;;6345521;22;20014;-79
2023/06/24 14:10:02;;;;;;;8.20;5.45;;;;;;;;;;6372135;22;20014;-78
2023/06/24 14:12:31;;;;;;;7.72;6.50;;;;;;;;;;6331866;22;20063;-79
2023/06/24 14:14:59;;;;;;;6.93;5.32;;;;;;;;;;6344896;22;20021;-78
2023/06/24 14:17:26;;;;;;;7.45;6.00;;;;;;;;;;6372851;22;20014;-78
2023/06/24 14:19:54;;;;;;;8.10;5.20;;;;;;;;;;6372867;22;20089;-78
2023/06/24 14:22:22;;;;;;;8.20;5.50;;;;;;;;;;6319056;22;20022;-79
2023/06/24 14:24:50;;;;;;;6.03;5.43;;;;;;;;;;6345413;22;20011;-79
2023/06/24 14:27:17;;;;;;;6.47;5.50;;;;;;;;;;6372668;22;20018;-77
2023/06/24 14:29:45;;;;;;;6.22;5.53;;;;;;;;;;6345641;22;20022;-78
2023/06/24 14:32:12;;;;;;;7.22;6.00;;;;;;;;;;6371758;22;20020;-76
2023/06/24 14:34:40;;;;;;;9.68;6.07;;;;;;;;;;6345225;22;20036;-79
2023/06/24 14:37:08;;;;;;;9.43;5.85;;;;;;;;;;6372970;22;20394;-78
2023/06/24 14:39:36;;;;;;;10.02;5.75;;;;;;;;;;6372964;22;20018;-79